Time;durP1;ratioP1;P1;durP2;ratioP2;P2;SDS_P1;SDS_P2;PMS_P1;PMS_P2;Temp;Humidity;BMP_temperature;BMP_pressure;BME280_temperature;BME280_humidity;BME280_pressure;Samples;Min_cycle;Max_cycle;Signal;HPM_P1;HPM_P2
2021/09/14 00:00:18;;;;;;;8.10;5.23;;;17.10;91.90;;;;;;5035506;28;20489;-67
2021/09/14 00:02:46;;;;;;;7.87;5.97;;;17.10;91.80;;;;;;5054022;28;20443;-68
2021/09/14 00:05:18;;;;;;;6.53;5.50;;;17.20;91.80;;;;;;5055165;28;21004;-67
2021/09/14 00:07:51;;;;;;;5.27;4.53;;;17.10;91.30;;;;;;5036030;28;20520;-67
2021/09/14 00:10:22;;;;;;;6.83;6.10;;;17.10;91.40;;;;;;5035186;28;20505;-67
2021/09/14 00:12:50;;;;;;;6.77;5.90;;;17.10;91.30;;;;;;5053524;28;20437;-68
2021/09/14 00:15:18;;;;;;;5.47;4.80;;;17.00;91.40;;;;;;5054740;28;20479;-67
2021/09/14 00:17:45;;;;;;;6.10;4.87;;;17.00;91.50;;;;;;5053919;28;20543;-67
2021/09/14 00:20:13;;;;;;;6.07;5.03;;;17.10;91.40;;;;;;5054698;28;20523;-67
2021/09/14 00:22:47;;;;;;;8.47;5.23;;;17.10;91.70;;;;;;5037367;28;20445;-67
2021/09/14 00:25:16;;;;;;;7.33;4.57;;;17.10;91.40;;;;;;5034967;28;20481;-67
2021/09/14 00:27:43;;;;;;;6.20;4.80;;;17.10;91.30;;;;;;5051008;28;20563;-68
2021/09/14 00:30:12;;;;;;;5.30;4.73;;;17.00;91.20;;;;;;5054970;28;20492;-67
2021/09/14 00:32:39;;;;;;;6.03;4.30;;;17.00;91.30;;;;;;5039157;28;20446;-67
2021/09/14 00:35:09;;;;;;;5.27;4.77;;;17.00;91.30;;;;;;5034644;28;20499;-67
2021/09/14 00:37:38;;;;;;;5.00;4.23;;;16.90;91.30;;;;;;5034380;28;20434;-67
2021/09/14 00:40:06;;;;;;;6.43;4.60;;;16.90;91.40;;;;;;5034213;28;20857;-67
2021/09/14 00:42:35;;;;;;;5.00;4.37;;;16.90;91.40;;;;;;5034203;28;21047;-67
2021/09/14 00:45:02;;;;;;;6.00;5.40;;;16.90;91.20;;;;;;5033994;28;20521;-67
2021/09/14 00:47:29;;;;;;;5.90;4.80;;;16.90;91.30;;;;;;5033776;28;20859;-68
2021/09/14 00:49:58;;;;;;;6.80;4.80;;;16.90;91.10;;;;;;5034089;28;20944;-68
2021/09/14 00:52:25;;;;;;;4.30;3.90;;;16.80;91.10;;;;;;5034233;28;20502;-67
2021/09/14 00:54:54;;;;;;;8.47;4.40;;;16.80;91.00;;;;;;5033902;28;20477;-67
2021/09/14 00:57:21;;;;;;;7.93;4.13;;;16.70;91.20;;;;;;5033868;28;20450;-68
2021/09/14 00:59:55;;;;;;;5.40;3.80;;;16.70;91.50;;;;;;5034506;28;20545;-68
2021/09/14 01:02:22;;;;;;;6.33;5.07;;;16.70;91.60;;;;;;5043622;28;20469;-68
2021/09/14 01:04:49;;;;;;;6.53;3.80;;;16.60;91.10;;;;;;5054241;28;20795;-68
2021/09/14 01:07:22;;;;;;;5.63;4.17;;;16.50;91.20;;;;;;5045461;28;20487;-67
2021/09/14 01:09:49;;;;;;;7.47;4.47;;;16.50;91.30;;;;;;5034378;28;20526;-67
2021/09/14 01:12:18;;;;;;;9.30;4.30;;;16.40;91.50;;;;;;5051032;28;20943;-67
2021/09/14 01:14:58;;;;;;;6.10;4.40;;;16.40;91.80;;;;;;5053881;28;20437;-67
2021/09/14 01:17:31;;;;;;;6.60;5.23;;;16.40;92.00;;;;;;5053092;28;20873;-67
2021/09/14 01:19:58;;;;;;;6.60;5.70;;;16.50;92.00;;;;;;5053737;28;20479;-67
2021/09/14 01:22:30;;;;;;;7.50;5.60;;;16.50;92.20;;;;;;5035152;28;20477;-68
2021/09/14 01:25:02;;;;;;;8.60;4.57;;;16.50;92.20;;;;;;5045772;28;20437;-67
2021/09/14 01:27:29;;;;;;;6.00;5.07;;;16.50;92.30;;;;;;5047945;28;20556;-68
2021/09/14 01:30:12;;;;;;;7.23;5.10;;;16.50;92.20;;;;;;5033593;28;20508;-68
2021/09/14 01:32:40;;;;;;;6.23;5.30;;;16.50;92.00;;;;;;5033372;28;20783;-67
2021/09/14 01:35:13;;;;;;;6.20;5.60;;;16.50;92.20;;;;;;5033461;28;20446;-67
2021/09/14 01:37:42;;;;;;;5.70;4.50;;;16.40;92.20;;;;;;5037671;28;20461;-67
2021/09/14 01:40:11;;;;;;;6.23;5.13;;;16.40;92.20;;;;;;5053569;28;20469;-69
2021/09/14 01:42:39;;;;;;;5.80;5.03;;;16.40;92.10;;;;;;5048590;28;20518;-67
2021/09/14 01:45:13;;;;;;;6.43;5.00;;;16.30;92.30;;;;;;5033390;28;20474;-67
2021/09/14 01:47:42;;;;;;;6.33;4.87;;;16.30;92.50;;;;;;5032308;28;20562;-67
2021/09/14 01:50:14;;;;;;;7.30;5.27;;;16.30;92.70;;;;;;5033240;28;20785;-68
2021/09/14 01:52:47;;;;;;;6.80;5.67;;;16.30;92.70;;;;;;5047637;28;20441;-67
2021/09/14 01:55:17;;;;;;;10.20;5.90;;;16.30;92.70;;;;;;5052522;28;20437;-67
2021/09/14 01:57:44;;;;;;;6.70;5.27;;;16.30;92.60;;;;;;5052907;28;20528;-67
2021/09/14 02:00:16;;;;;;;8.20;5.63;;;16.30;92.50;;;;;;5053315;28;20433;-67
2021/09/14 02:03:01;;;;;;;8.03;6.93;;;16.30;92.50;;;;;;5052488;28;20471;-67
2021/09/14 02:33:54;;;;;;;7.93;7.10;;;16.10;92.90;;;;;;5051809;28;20436;-67
2021/09/14 02:39:45;;;;;;;7.60;6.30;;;16.00;92.60;;;;;;5032839;28;20480;-68
2021/09/14 02:59:01;;;;;;;7.73;5.87;;;15.80;93.20;;;;;;5040830;28;20441;-67
2021/09/14 03:01:33;;;;;;;6.20;5.60;;;15.80;93.30;;;;;;5052365;28;20828;-68
2021/09/14 03:04:04;;;;;;;6.23;5.23;;;15.80;93.40;;;;;;5051496;28;20473;-67
2021/09/14 03:06:35;;;;;;;5.83;4.30;;;15.80;93.50;;;;;;5053000;28;20436;-67
2021/09/14 03:09:02;;;;;;;5.50;5.00;;;15.80;93.30;;;;;;5055604;28;20511;-67
2021/09/14 03:11:29;;;;;;;6.00;5.40;;;15.80;93.10;;;;;;5056255;28;20471;-67
2021/09/14 03:13:59;;;;;;;10.50;4.83;;;15.80;92.90;;;;;;5055568;28;20476;-67
2021/09/14 03:16:31;;;;;;;8.73;5.40;;;15.70;92.70;;;;;;5055994;28;20441;-67
2021/09/14 03:19:03;;;;;;;7.03;4.33;;;15.60;92.60;;;;;;5038804;28;20556;-68
2021/09/14 03:21:32;;;;;;;5.77;4.20;;;15.60;92.80;;;;;;5036059;28;20484;-68
2021/09/14 03:24:05;;;;;;;5.70;4.60;;;15.60;92.90;;;;;;5035846;28;20469;-67
2021/09/14 03:26:32;;;;;;;6.20;5.23;;;15.60;93.00;;;;;;5036124;28;20532;-67
2021/09/14 03:29:06;;;;;;;5.63;5.00;;;15.60;93.20;;;;;;5050603;28;20483;-67
2021/09/14 03:31:47;;;;;;;6.27;4.93;;;15.60;93.00;;;;;;5055699;28;20523;-68
2021/09/14 03:34:15;;;;;;;4.33;3.90;;;15.50;92.80;;;;;;5055633;28;20475;-67
2021/09/14 03:36:47;;;;;;;5.30;4.53;;;15.50;92.50;;;;;;5055319;28;20527;-67
2021/09/14 03:39:15;;;;;;;10.83;6.43;;;15.40;92.70;;;;;;5039424;28;20438;-67
2021/09/14 03:41:42;;;;;;;7.33;5.83;;;15.40;93.20;;;;;;5035733;28;20448;-67
2021/09/14 03:44:11;;;;;;;6.07;5.03;;;15.40;93.30;;;;;;5048695;28;20441;-67
2021/09/14 03:46:42;;;;;;;9.17;5.60;;;15.30;93.10;;;;;;5055459;28;20524;-67
2021/09/14 03:49:11;;;;;;;11.90;6.87;;;15.30;92.80;;;;;;5039823;28;20473;-67
2021/09/14 03:51:38;;;;;;;8.37;6.00;;;15.30;92.60;;;;;;5035487;28;20433;-67
2021/09/14 03:54:05;;;;;;;11.73;6.10;;;15.30;92.90;;;;;;5034845;28;20535;-67
2021/09/14 03:56:33;;;;;;;9.60;7.40;;;15.30;93.00;;;;;;5036382;28;20525;-67
2021/09/14 03:59:08;;;;;;;17.33;9.20;;;15.30;93.00;;;;;;5055204;28;20525;-67
2021/09/14 04:01:49;;;;;;;15.07;7.97;;;15.30;93.40;;;;;;5055204;28;20432;-67
2021/09/14 04:04:20;;;;;;;10.93;7.30;;;15.30;93.70;;;;;;5055808;28;20445;-67
2021/09/14 04:07:22;;;;;;;7.37;6.00;;;15.30;93.90;;;;;;5054783;28;20436;-68
2021/09/14 04:09:54;;;;;;;7.00;5.50;;;15.30;94.00;;;;;;5055610;28;20537;-67
2021/09/14 04:12:24;;;;;;;8.00;5.77;;;15.30;93.90;;;;;;5054717;28;20432;-69
2021/09/14 04:15:07;;;;;;;7.57;6.40;;;15.30;93.40;;;;;;5055241;28;20437;-68
2021/09/14 04:17:39;;;;;;;5.13;4.60;;;15.30;93.10;;;;;;5054020;28;20468;-67
2021/09/14 04:20:14;;;;;;;4.53;4.10;;;15.30;92.80;;;;;;5054614;28;20477;-67
2021/09/14 04:22:41;;;;;;;4.40;3.70;;;15.20;92.60;;;;;;5051771;28;20527;-68
2021/09/14 04:25:09;;;;;;;5.33;4.20;;;15.20;92.50;;;;;;5054885;28;20444;-67
2021/09/14 04:27:40;;;;;;;6.53;4.70;;;15.10;92.40;;;;;;5047857;28;20448;-67
2021/09/14 04:30:10;;;;;;;7.67;5.00;;;15.10;92.70;;;;;;5035145;28;20529;-67
2021/09/14 04:32:39;;;;;;;6.30;4.63;;;15.10;92.70;;;;;;5038191;28;20448;-67
2021/09/14 04:35:14;;;;;;;7.03;5.50;;;15.00;92.80;;;;;;5055027;28;20791;-67
2021/09/14 04:37:41;;;;;;;5.07;4.57;;;15.00;92.70;;;;;;5054707;28;20531;-67
2021/09/14 04:40:13;;;;;;;6.23;5.20;;;15.00;92.70;;;;;;5054783;28;20448;-67
2021/09/14 04:42:42;;;;;;;5.60;3.83;;;15.00;93.00;;;;;;5052156;28;20437;-67
2021/09/14 04:45:10;;;;;;;6.03;5.00;;;15.00;92.50;;;;;;5054910;28;20920;-67
2021/09/14 04:47:39;;;;;;;6.00;4.47;;;14.90;92.60;;;;;;5040659;28;20597;-67
2021/09/14 04:50:07;;;;;;;5.97;5.37;;;15.00;93.10;;;;;;5034507;28;20513;-67
2021/09/14 04:52:39;;;;;;;6.07;4.50;;;14.90;92.90;;;;;;5034524;28;20524;-67
2021/09/14 04:55:07;;;;;;;6.67;5.07;;;14.90;92.60;;;;;;5033683;28;20519;-67
2021/09/14 04:57:35;;;;;;;5.80;4.70;;;15.00;92.80;;;;;;5045836;28;20519;-67
2021/09/14 05:00:04;;;;;;;5.20;4.70;;;15.00;93.00;;;;;;5051124;28;20469;-67
2021/09/14 05:02:31;;;;;;;7.50;5.10;;;15.00;93.00;;;;;;5054099;28;20520;-67
2021/09/14 05:05:00;;;;;;;6.77;5.03;;;14.90;93.00;;;;;;5053787;28;20540;-67
2021/09/14 05:07:27;;;;;;;7.70;5.97;;;14.90;93.00;;;;;;5054417;28;20486;-67
2021/09/14 05:09:54;;;;;;;7.63;6.20;;;14.80;93.00;;;;;;5049766;28;20483;-67
2021/09/14 05:12:21;;;;;;;7.10;5.07;;;14.80;93.30;;;;;;5054396;28;20441;-67
2021/09/14 05:14:48;;;;;;;7.70;5.87;;;14.80;93.70;;;;;;5048745;28;20515;-67
2021/09/14 05:17:24;;;;;;;9.27;5.33;;;14.80;93.80;;;;;;5053112;28;20491;-67
2021/09/14 05:19:54;;;;;;;8.93;5.77;;;14.90;93.80;;;;;;5040330;28;20445;-68
2021/09/14 05:22:31;;;;;;;7.43;4.90;;;14.90;93.70;;;;;;5032237;28;20492;-69
2021/09/14 05:24:58;;;;;;;6.47;5.70;;;14.90;93.70;;;;;;5033862;28;20785;-68
2021/09/14 05:27:34;;;;;;;9.40;5.93;;;14.90;93.90;;;;;;5039000;28;20521;-67
2021/09/14 05:30:01;;;;;;;7.00;6.00;;;15.00;94.00;;;;;;5050041;28;20899;-68
2021/09/14 05:32:28;;;;;;;5.50;4.57;;;15.10;94.00;;;;;;5036964;28;20473;-68
2021/09/14 05:34:55;;;;;;;6.70;5.27;;;15.10;94.30;;;;;;5033384;28;20995;-68
2021/09/14 05:37:24;;;;;;;6.93;5.70;;;15.10;94.20;;;;;;5038158;28;20496;-68
2021/09/14 05:39:51;;;;;;;6.27;5.33;;;15.20;94.20;;;;;;5032951;28;21005;-68
2021/09/14 05:42:22;;;;;;;12.10;6.60;;;15.20;94.10;;;;;;5033102;28;20444;-68
2021/09/14 05:44:49;;;;;;;7.33;5.63;;;15.20;94.50;;;;;;5037633;28;20524;-67
2021/09/14 05:47:17;;;;;;;5.93;5.33;;;15.30;94.70;;;;;;5048397;28;20448;-67
2021/09/14 05:49:46;;;;;;;5.40;4.90;;;15.30;94.90;;;;;;5036712;28;20508;-67
2021/09/14 05:52:13;;;;;;;7.60;5.67;;;15.40;95.10;;;;;;5038996;28;20528;-67
2021/09/14 05:54:41;;;;;;;9.53;6.27;;;15.50;95.30;;;;;;5045705;28;20958;-67
2021/09/14 05:57:12;;;;;;;8.80;6.00;;;15.60;95.30;;;;;;5049552;28;21007;-67
2021/09/14 05:59:39;;;;;;;6.90;6.20;;;15.70;95.50;;;;;;5041437;28;20501;-67
2021/09/14 06:02:08;;;;;;;6.73;6.00;;;15.90;95.40;;;;;;5031272;28;20449;-68
2021/09/14 06:04:36;;;;;;;8.80;5.67;;;16.00;95.70;;;;;;5032170;28;20489;-67
2021/09/14 06:07:06;;;;;;;8.87;5.50;;;16.10;95.10;;;;;;5031679;28;20450;-67
2021/09/14 06:09:33;;;;;;;8.50;6.57;;;16.10;95.70;;;;;;5031820;28;20896;-69
2021/09/14 06:12:06;;;;;;;7.60;6.07;;;16.20;95.10;;;;;;5045042;28;20465;-68
2021/09/14 06:14:35;;;;;;;7.30;5.77;;;16.40;95.30;;;;;;5038959;28;20437;-68
2021/09/14 06:17:02;;;;;;;7.17;5.13;;;16.40;95.00;;;;;;5041520;28;20488;-69
2021/09/14 06:19:32;;;;;;;7.50;6.03;;;16.50;94.80;;;;;;5031917;28;20426;-69
2021/09/14 06:22:05;;;;;;;8.33;5.80;;;16.60;94.90;;;;;;5032254;28;20449;-68
2021/09/14 06:24:32;;;;;;;8.90;6.07;;;16.70;95.10;;;;;;5044657;28;20987;-68
2021/09/14 06:26:59;;;;;;;6.73;5.93;;;16.80;95.10;;;;;;5052503;28;20877;-68
2021/09/14 06:29:31;;;;;;;5.83;5.23;;;17.00;95.40;;;;;;5052795;28;20521;-69
2021/09/14 06:31:58;;;;;;;6.10;5.50;;;17.10;95.20;;;;;;5046906;28;20544;-69
2021/09/14 06:34:25;;;;;;;8.67;6.27;;;17.20;95.00;;;;;;5052812;28;20535;-68
2021/09/14 06:36:55;;;;;;;9.83;6.77;;;17.40;94.80;;;;;;5052719;28;20443;-68
2021/09/14 06:39:22;;;;;;;8.17;5.73;;;17.50;94.60;;;;;;5051281;28;20441;-68
2021/09/14 06:41:52;;;;;;;6.57;5.90;;;17.60;94.50;;;;;;5052212;28;20496;-68
2021/09/14 06:44:19;;;;;;;9.37;6.50;;;17.70;94.50;;;;;;5053084;28;20451;-68
2021/09/14 06:46:47;;;;;;;8.60;5.70;;;17.90;94.50;;;;;;5052331;28;20472;-68
2021/09/14 06:49:14;;;;;;;10.57;6.60;;;18.10;94.40;;;;;;5052716;28;20480;-67
2021/09/14 06:51:45;;;;;;;9.43;6.53;;;18.30;94.40;;;;;;5052914;28;20740;-68
2021/09/14 06:54:13;;;;;;;6.77;6.03;;;18.60;94.50;;;;;;5052117;28;20853;-68
2021/09/14 06:56:40;;;;;;;11.50;5.40;;;18.80;94.50;;;;;;5051610;28;21227;-67
2021/09/14 06:59:08;;;;;;;14.73;5.47;;;19.10;94.20;;;;;;5038612;28;20975;-67
2021/09/14 07:01:37;;;;;;;10.50;7.50;;;19.50;93.60;;;;;;5032288;28;20534;-67
2021/09/14 07:04:05;;;;;;;7.83;6.57;;;19.90;93.40;;;;;;5032431;28;20873;-67
2021/09/14 07:06:37;;;;;;;7.70;6.10;;;20.40;91.50;;;;;;5032289;28;21008;-67
2021/09/14 07:09:07;;;;;;;9.43;6.80;;;20.90;91.00;;;;;;5032698;28;20478;-68
2021/09/14 07:11:34;;;;;;;7.57;5.60;;;21.40;90.60;;;;;;5032742;28;20437;-67
2021/09/14 07:14:01;;;;;;;6.20;5.60;;;22.10;89.30;;;;;;5032396;28;20441;-68
2021/09/14 07:16:28;;;;;;;5.60;5.00;;;23.00;85.30;;;;;;5032531;28;20874;-67
2021/09/14 07:18:55;;;;;;;6.07;5.47;;;24.00;85.80;;;;;;5013689;28;20512;-68
2021/09/14 07:21:23;;;;;;;7.50;4.90;;;25.00;77.00;;;;;;5012353;28;20998;-69
2021/09/14 07:23:55;;;;;;;5.67;5.17;;;26.10;70.00;;;;;;5013026;28;20827;-69
2021/09/14 07:26:24;;;;;;;8.00;5.47;;;28.40;66.40;;;;;;5013124;28;20489;-68
2021/09/14 07:28:51;;;;;;;4.97;4.43;;;30.60;58.10;;;;;;5012590;28;21031;-68
2021/09/14 07:31:18;;;;;;;7.03;4.40;;;32.40;50.90;;;;;;5012756;28;20524;-66
2021/09/14 07:33:45;;;;;;;6.63;4.50;;;34.00;46.30;;;;;;5012178;28;20443;-68
2021/09/14 07:36:12;;;;;;;7.40;4.60;;;35.40;41.60;;;;;;5012345;28;21003;-67
2021/09/14 07:38:42;;;;;;;6.73;4.60;;;36.60;37.60;;;;;;5012444;28;20909;-67
2021/09/14 07:41:10;;;;;;;5.80;4.70;;;38.00;35.30;;;;;;5012176;28;20481;-68
2021/09/14 07:43:41;;;;;;;7.13;4.60;;;38.80;33.10;;;;;;5012281;28;20442;-67
2021/09/14 07:46:09;;;;;;;8.03;5.77;;;40.00;30.00;;;;;;5012382;28;20470;-68
2021/09/14 07:48:37;;;;;;;5.50;5.00;;;41.20;27.60;;;;;;5012181;28;20534;-67
2021/09/14 07:51:04;;;;;;;7.23;4.67;;;41.90;26.90;;;;;;5012165;28;20514;-68
2021/09/14 07:53:31;;;;;;;4.53;3.60;;;42.40;26.40;;;;;;5013253;28;20442;-68
2021/09/14 07:56:00;;;;;;;5.87;5.03;;;43.30;26.10;;;;;;5016083;28;20861;-67
2021/09/14 07:58:28;;;;;;;6.00;4.53;;;44.10;23.80;;;;;;5015793;28;20525;-68
2021/09/14 08:00:55;;;;;;;6.00;4.10;;;44.40;21.60;;;;;;5015734;28;21008;-67
2021/09/14 08:03:27;;;;;;;4.00;3.70;;;44.80;23.30;;;;;;5015942;28;20446;-67
2021/09/14 08:05:54;;;;;;;5.67;4.33;;;45.40;22.70;;;;;;5015735;28;20489;-68
2021/09/14 08:08:23;;;;;;;5.20;4.70;;;45.90;21.70;;;;;;5015698;28;20949;-68
2021/09/14 08:10:52;;;;;;;8.40;4.63;;;46.20;20.60;;;;;;5015387;28;20588;-68
2021/09/14 08:13:24;;;;;;;4.57;4.13;;;46.70;20.50;;;;;;5015608;28;20537;-68
2021/09/14 08:15:50;;;;;;;5.00;4.50;;;47.00;19.90;;;;;;5015707;28;20442;-68
2021/09/14 08:18:18;;;;;;;4.30;3.70;;;47.40;19.00;;;;;;5015463;28;20498;-68
2021/09/14 08:20:47;;;;;;;6.00;4.00;;;47.90;18.60;;;;;;5015379;28;20482;-68
2021/09/14 08:23:16;;;;;;;5.83;4.40;;;48.60;18.20;;;;;;5015361;28;20942;-68
2021/09/14 08:25:43;;;;;;;4.17;3.77;;;49.00;17.90;;;;;;5015484;28;20865;-68
2021/09/14 08:28:10;;;;;;;4.50;4.03;;;49.60;18.00;;;;;;5015051;28;20450;-68
2021/09/14 08:30:38;;;;;;;4.93;4.43;;;50.20;17.20;;;;;;5015208;28;20438;-68
2021/09/14 08:33:06;;;;;;;4.20;3.80;;;50.80;16.30;;;;;;5015301;28;20977;-68
2021/09/14 08:35:38;;;;;;;7.03;4.23;;;51.10;17.00;;;;;;5015282;28;20434;-68
2021/09/14 08:38:05;;;;;;;4.10;3.70;;;51.70;16.50;;;;;;5014980;28;20482;-68
2021/09/14 08:40:34;;;;;;;4.10;3.70;;;52.10;16.00;;;;;;5014777;28;20487;-68
2021/09/14 08:43:01;;;;;;;4.10;3.70;;;52.40;15.40;;;;;;5014741;28;20517;-68
2021/09/14 08:45:30;;;;;;;3.93;3.53;;;52.70;14.70;;;;;;5014758;28;20538;-68
2021/09/14 08:48:00;;;;;;;4.80;4.27;;;53.00;14.40;;;;;;5014965;28;20521;-68
2021/09/14 08:50:27;;;;;;;7.70;4.77;;;53.10;14.70;;;;;;5014727;28;20517;-68
2021/09/14 08:52:54;;;;;;;3.40;3.10;;;53.60;14.80;;;;;;5015145;28;20925;-69
2021/09/14 08:55:22;;;;;;;3.97;3.57;;;54.00;14.20;;;;;;5014677;28;20438;-69
2021/09/14 08:57:55;;;;;;;5.23;3.90;;;54.40;14.10;;;;;;5014853;28;20996;-68
2021/09/14 09:00:31;;;;;;;4.40;3.63;;;54.80;14.10;;;;;;5014932;28;20480;-68
2021/09/14 09:02:59;;;;;;;3.83;3.30;;;55.10;14.10;;;;;;5014797;28;20445;-68
2021/09/14 09:05:33;;;;;;;4.90;3.87;;;55.20;13.90;;;;;;5014595;28;20497;-68
2021/09/14 09:08:03;;;;;;;4.93;4.53;;;55.60;13.60;;;;;;5014509;28;20862;-69
2021/09/14 09:10:34;;;;;;;4.00;3.60;;;55.80;13.30;;;;;;5013851;28;21128;-69
2021/09/14 09:13:05;;;;;;;4.23;3.80;;;56.10;12.90;;;;;;5026387;28;20520;-68
2021/09/14 09:15:34;;;;;;;4.87;4.40;;;56.20;12.20;;;;;;5023094;28;20549;-68
2021/09/14 09:18:08;;;;;;;6.43;3.97;;;56.50;12.20;;;;;;5034619;28;20959;-69
2021/09/14 09:20:37;;;;;;;4.50;3.53;;;56.50;12.30;;;;;;5047022;28;20563;-68
2021/09/14 09:23:10;;;;;;;4.30;3.90;;;56.90;12.70;;;;;;5047827;28;20536;-68
2021/09/14 09:25:41;;;;;;;4.53;4.13;;;57.50;12.30;;;;;;5044255;28;20473;-68
2021/09/14 09:28:11;;;;;;;7.53;4.50;;;58.10;12.30;;;;;;5046739;28;20515;-68
2021/09/14 09:30:52;;;;;;;5.20;4.80;;;58.60;12.10;;;;;;5048019;28;20445;-68
2021/09/14 09:33:26;;;;;;;4.97;4.57;;;58.70;11.50;;;;;;5047742;28;20453;-68
2021/09/14 09:35:59;;;;;;;4.27;3.83;;;58.50;11.50;;;;;;5045441;28;20488;-69
2021/09/14 09:38:26;;;;;;;4.50;4.20;;;58.30;11.40;;;;;;5048148;28;20429;-69
2021/09/14 09:40:53;;;;;;;4.70;4.30;;;58.60;11.40;;;;;;5048019;28;20485;-70
2021/09/14 09:43:28;;;;;;;4.67;4.27;;;58.80;11.10;;;;;;5048297;28;21006;-68
2021/09/14 09:46:09;;;;;;;7.80;6.10;;;59.10;11.10;;;;;;5048151;28;20494;-69
2021/09/14 09:48:41;;;;;;;5.77;4.37;;;59.50;11.00;;;;;;5047935;28;20506;-69
2021/09/14 09:51:08;;;;;;;4.50;4.10;;;60.00;10.70;;;;;;5044104;28;20531;-69
2021/09/14 09:53:35;;;;;;;5.30;4.60;;;60.30;10.90;;;;;;5048309;28;20468;-69
2021/09/14 09:56:10;;;;;;;5.17;4.47;;;60.60;10.40;;;;;;5048433;28;20448;-69
2021/09/14 09:58:52;;;;;;;6.40;4.50;;;60.80;10.60;;;;;;5045121;28;20436;-69
2021/09/14 10:01:23;;;;;;;4.73;4.33;;;60.80;10.70;;;;;;5047552;28;20575;-69
2021/09/14 10:03:57;;;;;;;4.80;4.27;;;60.90;10.40;;;;;;5047919;28;20452;-68
2021/09/14 10:06:29;;;;;;;4.77;4.37;;;61.20;10.60;;;;;;5046590;28;20826;-70
2021/09/14 10:08:59;;;;;;;5.43;4.93;;;61.30;10.00;;;;;;5045333;28;20528;-69
2021/09/14 10:11:35;;;;;;;5.73;4.40;;;61.20;10.20;;;;;;5046923;28;20451;-69
2021/09/14 10:14:17;;;;;;;4.47;4.03;;;61.70;10.20;;;;;;5046936;28;20526;-69
2021/09/14 10:16:45;;;;;;;5.27;4.87;;;62.10;10.30;;;;;;5040764;28;20459;-67
2021/09/14 10:19:16;;;;;;;5.20;4.70;;;62.40;10.70;;;;;;5021765;28;20425;-66
2021/09/14 10:21:58;;;;;;;4.50;4.10;;;62.40;9.70;;;;;;5022102;28;20562;-67
2021/09/14 10:24:34;;;;;;;4.30;3.90;;;62.60;9.70;;;;;;5022525;28;20469;-67
2021/09/14 10:27:06;;;;;;;3.80;3.50;;;62.40;9.10;;;;;;5020642;28;20529;-67
2021/09/14 10:29:33;;;;;;;4.67;3.90;;;62.60;9.30;;;;;;5020764;28;20521;-67
2021/09/14 10:32:03;;;;;;;5.07;4.00;;;62.70;8.80;;;;;;5020694;28;20429;-67
2021/09/14 10:34:42;;;;;;;4.20;3.70;;;62.80;8.70;;;;;;5022513;28;20464;-72
2021/09/14 10:37:18;;;;;;;4.60;3.67;;;63.10;9.00;;;;;;5020664;28;20446;-67
2021/09/14 10:39:47;;;;;;;3.50;3.20;;;63.20;9.10;;;;;;5020250;28;20529;-67
2021/09/14 10:42:19;;;;;;;3.33;3.03;;;63.20;8.40;;;;;;5020097;28;21001;-67
2021/09/14 10:44:48;;;;;;;3.50;3.20;;;63.30;7.90;;;;;;5022684;28;20200;-67
2021/09/14 10:47:21;;;;;;;3.50;3.20;;;63.40;7.80;;;;;;5024227;28;20884;-68
2021/09/14 10:49:59;;;;;;;3.70;3.00;;;63.60;7.80;;;;;;5031317;28;20281;-71
2021/09/14 10:52:37;;;;;;;3.50;3.20;;;63.80;7.70;;;;;;5016188;28;20195;-68
2021/09/14 10:55:09;;;;;;;3.73;3.30;;;63.60;7.60;;;;;;5012032;28;20637;-67
2021/09/14 10:57:38;;;;;;;3.97;3.67;;;63.60;7.60;;;;;;5012075;28;20477;-67
2021/09/14 11:00:07;;;;;;;3.67;3.37;;;63.60;7.00;;;;;;5012058;28;20282;-67
2021/09/14 11:02:37;;;;;;;3.83;3.53;;;63.30;7.80;;;;;;5028068;28;20441;-67
2021/09/14 11:05:08;;;;;;;3.60;3.30;;;62.90;8.00;;;;;;5029228;28;20821;-67
2021/09/14 11:07:35;;;;;;;3.80;3.23;;;62.90;7.60;;;;;;5022840;28;20502;-68
2021/09/14 11:10:07;;;;;;;3.20;3.00;;;63.10;7.80;;;;;;5021368;28;20572;-67
2021/09/14 11:12:35;;;;;;;4.00;3.63;;;63.10;8.40;;;;;;5021420;28;20445;-67
2021/09/14 11:15:17;;;;;;;3.47;3.17;;;63.10;8.10;;;;;;5021386;28;20484;-68
2021/09/14 11:17:50;;;;;;;3.90;3.43;;;63.20;8.10;;;;;;5030523;28;20872;-68
2021/09/14 11:20:21;;;;;;;3.35;3.05;;;63.10;7.60;;;;;;5040150;28;20560;-67
2021/09/14 11:22:55;;;;;;;2.87;2.60;;;63.10;7.60;;;;;;5040757;28;20289;-67
2021/09/14 11:25:26;;;;;;;3.20;2.90;;;62.90;7.60;;;;;;5039865;28;20441;-68
2021/09/14 11:28:02;;;;;;;4.00;3.53;;;62.80;7.50;;;;;;5041387;28;20445;-67
2021/09/14 11:30:32;;;;;;;3.87;3.47;;;62.50;7.60;;;;;;5043665;28;20516;-67
2021/09/14 11:33:00;;;;;;;3.97;3.20;;;62.20;7.40;;;;;;5046105;28;20527;-67
2021/09/14 11:35:33;;;;;;;4.30;2.93;;;61.70;6.70;;;;;;5043260;28;20237;-68
2021/09/14 11:38:02;;;;;;;2.60;2.40;;;60.70;7.20;;;;;;5046000;28;20450;-66
2021/09/14 11:40:35;;;;;;;3.60;3.30;;;60.70;7.50;;;;;;5043531;28;20479;-67
2021/09/14 11:43:08;;;;;;;2.80;2.60;;;60.70;7.60;;;;;;5045615;28;20467;-67
2021/09/14 11:45:37;;;;;;;3.33;3.03;;;60.60;8.40;;;;;;5044099;28;20459;-66
2021/09/14 11:48:15;;;;;;;2.90;2.60;;;60.40;7.70;;;;;;5045464;28;20527;-67
2021/09/14 11:50:44;;;;;;;3.20;2.90;;;59.70;8.10;;;;;;5043387;28;20839;-66
2021/09/14 11:53:16;;;;;;;4.20;2.90;;;59.30;8.00;;;;;;5046220;28;20972;-67
2021/09/14 11:55:44;;;;;;;3.70;3.40;;;58.70;8.30;;;;;;5044506;28;20527;-67
2021/09/14 11:58:11;;;;;;;5.20;3.20;;;58.30;8.30;;;;;;5043903;28;20524;-66
2021/09/14 12:00:43;;;;;;;4.43;2.80;;;58.00;8.80;;;;;;5044264;28;20539;-68
2021/09/14 12:03:10;;;;;;;3.20;2.90;;;57.60;9.50;;;;;;5043452;28;20732;-67
2021/09/14 12:05:38;;;;;;;4.50;3.53;;;57.20;9.70;;;;;;5044405;28;20472;-67
2021/09/14 12:08:17;;;;;;;3.70;3.17;;;56.70;9.80;;;;;;5042794;28;20528;-67
2021/09/14 12:10:45;;;;;;;6.03;2.63;;;55.90;10.10;;;;;;5043232;28;20623;-67
2021/09/14 12:13:20;;;;;;;3.93;3.53;;;55.00;10.00;;;;;;5043693;28;20434;-69
2021/09/14 12:15:48;;;;;;;5.30;2.87;;;54.30;10.50;;;;;;5043148;28;20475;-67
2021/09/14 12:18:20;;;;;;;5.57;3.33;;;54.30;10.60;;;;;;5042452;28;20552;-67
2021/09/14 12:20:52;;;;;;;4.00;3.60;;;54.20;11.00;;;;;;5044718;28;20472;-67
2021/09/14 12:23:22;;;;;;;3.90;3.10;;;54.30;10.30;;;;;;5044033;28;20502;-67
2021/09/14 12:25:51;;;;;;;3.27;2.97;;;54.40;11.30;;;;;;5043174;28;21027;-67
2021/09/14 12:28:17;;;;;;;4.20;2.73;;;54.20;10.80;;;;;;5043986;28;20551;-67
2021/09/14 12:30:49;;;;;;;4.23;3.10;;;53.90;11.00;;;;;;5041404;28;20891;-67
2021/09/14 12:33:21;;;;;;;3.20;2.83;;;52.50;11.20;;;;;;5042554;28;20524;-67
2021/09/14 12:35:48;;;;;;;5.13;3.00;;;51.30;11.80;;;;;;5044223;28;20437;-67
2021/09/14 12:38:15;;;;;;;4.70;3.63;;;50.80;11.90;;;;;;5042050;28;20544;-70
2021/09/14 12:40:43;;;;;;;5.70;3.00;;;50.50;12.30;;;;;;5043687;28;20531;-69
2021/09/14 12:43:13;;;;;;;3.67;3.33;;;50.50;12.90;;;;;;5045265;28;20488;-69
2021/09/14 12:45:40;;;;;;;3.40;2.87;;;50.20;12.70;;;;;;5045164;28;20524;-69
2021/09/14 12:48:09;;;;;;;3.23;2.93;;;49.80;12.30;;;;;;5041579;28;20480;-70
2021/09/14 12:50:36;;;;;;;3.50;2.93;;;48.90;12.60;;;;;;5044614;28;20634;-66
2021/09/14 12:53:13;;;;;;;7.50;2.80;;;47.90;13.70;;;;;;5042283;28;20498;-67
2021/09/14 12:55:41;;;;;;;6.90;3.50;;;47.00;13.90;;;;;;5041522;28;20922;-66
2021/09/14 12:58:09;;;;;;;5.10;3.00;;;46.10;15.50;;;;;;5044245;28;20524;-67
2021/09/14 13:00:37;;;;;;;4.53;2.97;;;45.40;15.40;;;;;;5037685;28;20532;-66
2021/09/14 13:03:06;;;;;;;3.73;3.33;;;44.60;14.30;;;;;;5033810;28;20465;-66
2021/09/14 13:05:37;;;;;;;5.17;3.83;;;43.60;15.40;;;;;;5033392;28;20528;-67
2021/09/14 13:08:08;;;;;;;5.37;3.67;;;42.70;16.60;;;;;;5033724;28;20835;-67
2021/09/14 13:10:35;;;;;;;3.23;2.93;;;41.60;17.20;;;;;;5033791;28;20874;-69
2021/09/14 13:18:36;;;;;;;4.13;3.40;;;39.70;20.00;;;;;;5047737;28;20471;-68
2021/09/14 13:21:03;;;;;;;4.13;3.73;;;38.90;20.80;;;;;;5053512;28;20552;-68
2021/09/14 13:23:33;;;;;;;4.00;3.13;;;38.20;22.10;;;;;;5053709;28;20471;-68
2021/09/14 13:26:00;;;;;;;3.57;3.20;;;37.70;22.10;;;;;;5053702;28;20983;-68
2021/09/14 13:28:27;;;;;;;3.60;3.30;;;37.10;22.00;;;;;;5052980;28;20928;-68
2021/09/14 13:30:55;;;;;;;3.73;3.33;;;36.70;22.70;;;;;;5053496;28;20532;-69
2021/09/14 13:33:22;;;;;;;5.00;3.30;;;36.30;23.50;;;;;;5053218;28;20470;-69
2021/09/14 13:35:49;;;;;;;3.93;3.20;;;35.90;24.20;;;;;;5053463;28;20437;-68
2021/09/14 13:38:16;;;;;;;3.30;2.70;;;35.70;24.50;;;;;;5053434;28;20591;-68
2021/09/14 13:40:45;;;;;;;4.40;4.00;;;35.40;25.00;;;;;;5053207;28;20974;-68
2021/09/14 13:43:12;;;;;;;3.70;3.30;;;35.10;24.90;;;;;;5053056;28;20440;-67
2021/09/14 13:48:27;;;;;;;5.37;3.17;;;34.60;25.70;;;;;;5052802;28;20425;-68
2021/09/14 13:50:54;;;;;;;9.03;3.63;;;34.40;26.00;;;;;;5052126;28;20469;-68
2021/09/14 13:53:24;;;;;;;3.93;3.30;;;34.10;27.10;;;;;;5052645;28;20532;-68
2021/09/14 13:55:52;;;;;;;7.90;4.07;;;33.90;27.20;;;;;;5052710;28;20488;-69
2021/09/14 13:58:19;;;;;;;5.23;3.77;;;33.70;27.90;;;;;;5052461;28;20878;-67